Time;durP1;ratioP1;P1;durP2;ratioP2;P2;SDS_P1;SDS_P2;PMS_P1;PMS_P2;Temp;Humidity;BMP_temperature;BMP_pressure;BME280_temperature;BME280_humidity;BME280_pressure;Samples;Min_cycle;Max_cycle;Signal;HPM_P1;HPM_P2
2021/06/28 00:00:26;;;;;;;12.07;10.97;;;18.90;99.90;;;;;;4998162;28;20437;-79
2021/06/28 00:02:53;;;;;;;14.33;12.83;;;18.90;99.90;;;;;;5001419;28;20475;-78
2021/06/28 00:05:20;;;;;;;15.00;12.60;;;19.00;99.90;;;;;;4979711;28;20435;-77
2021/06/28 00:07:47;;;;;;;14.13;12.73;;;18.90;99.90;;;;;;4983616;28;20485;-77
2021/06/28 00:10:29;;;;;;;13.67;11.40;;;18.90;99.90;;;;;;5015656;28;20401;-80
2021/06/28 00:12:58;;;;;;;12.80;11.60;;;18.80;99.90;;;;;;5013435;28;20458;-77
2021/06/28 00:15:30;;;;;;;14.77;13.27;;;18.80;99.90;;;;;;5007701;28;20947;-79
2021/06/28 00:17:58;;;;;;;12.50;11.40;;;18.80;99.90;;;;;;4993616;28;20879;-79
2021/06/28 00:20:25;;;;;;;11.93;10.73;;;18.70;99.90;;;;;;4995093;28;20442;-79
2021/06/28 00:22:52;;;;;;;13.03;11.70;;;18.70;99.90;;;;;;4995745;28;20564;-78
2021/06/28 00:25:20;;;;;;;15.00;11.60;;;18.70;99.90;;;;;;4995992;28;20412;-79
2021/06/28 00:27:48;;;;;;;16.57;11.03;;;18.70;99.90;;;;;;4977623;28;20476;-80
2021/06/28 00:30:28;;;;;;;13.07;11.40;;;18.60;99.90;;;;;;4975407;28;20433;-79
2021/06/28 00:32:56;;;;;;;13.63;11.20;;;18.60;99.90;;;;;;4956835;28;20452;-78
2021/06/28 00:35:25;;;;;;;12.07;9.87;;;18.60;99.90;;;;;;4975427;28;20433;-78
2021/06/28 00:37:52;;;;;;;12.33;11.03;;;18.60;99.90;;;;;;4981747;28;20477;-79
2021/06/28 00:40:19;;;;;;;11.50;10.43;;;18.60;99.90;;;;;;4978076;28;20521;-78
2021/06/28 00:42:47;;;;;;;13.10;10.20;;;18.40;99.90;;;;;;4993475;28;20473;-77
2021/06/28 00:45:23;;;;;;;11.17;10.07;;;18.40;99.90;;;;;;4993654;28;20444;-79
2021/06/28 00:47:53;;;;;;;13.37;10.40;;;18.50;99.90;;;;;;4994564;28;20470;-79
2021/06/28 00:50:23;;;;;;;10.27;9.17;;;18.40;99.90;;;;;;4994797;28;20412;-78
2021/06/28 00:52:55;;;;;;;12.37;9.50;;;18.40;99.90;;;;;;4992651;28;20480;-81
2021/06/28 00:55:22;;;;;;;8.80;8.00;;;18.40;99.90;;;;;;4977666;28;20464;-78
2021/06/28 00:57:49;;;;;;;9.33;7.93;;;18.50;99.90;;;;;;4975809;28;20535;-82
2021/06/28 01:00:17;;;;;;;10.47;8.20;;;18.50;99.90;;;;;;4966807;28;20446;-78
2021/06/28 01:02:44;;;;;;;10.63;8.13;;;18.40;99.90;;;;;;5009424;28;20830;-77
2021/06/28 01:05:23;;;;;;;12.00;9.10;;;18.40;99.90;;;;;;4994803;28;20795;-77
2021/06/28 01:07:51;;;;;;;17.73;8.67;;;18.40;99.90;;;;;;5002779;28;20491;-79
2021/06/28 01:10:20;;;;;;;13.07;8.83;;;18.30;99.90;;;;;;4999608;28;20430;-79
2021/06/28 01:12:48;;;;;;;12.53;8.50;;;18.30;99.90;;;;;;4994728;28;20462;-79
2021/06/28 01:15:16;;;;;;;8.70;7.90;;;18.30;99.90;;;;;;4995097;28;20418;-79
2021/06/28 01:17:44;;;;;;;10.10;8.10;;;18.20;99.90;;;;;;4997356;28;20509;-79
2021/06/28 01:20:29;;;;;;;9.60;8.70;;;18.20;99.90;;;;;;4993893;28;20433;-76
2021/06/28 01:23:18;;;;;;;14.97;8.47;;;18.10;99.90;;;;;;4992853;28;20466;-80
2021/06/28 01:25:48;;;;;;;13.73;7.60;;;18.10;99.90;;;;;;4995414;28;20953;-77
2021/06/28 01:28:17;;;;;;;10.23;7.67;;;18.10;99.90;;;;;;4994103;28;20771;-77
2021/06/28 01:30:44;;;;;;;10.80;7.90;;;17.90;99.90;;;;;;5010147;28;20588;-80
2021/06/28 01:33:11;;;;;;;15.67;8.67;;;17.90;99.90;;;;;;5014259;28;20532;-79
2021/06/28 01:35:40;;;;;;;16.57;7.57;;;17.90;99.90;;;;;;5014314;28;20475;-79
2021/06/28 01:38:08;;;;;;;15.60;7.30;;;17.90;99.90;;;;;;4973484;28;20477;-79
2021/06/28 01:40:37;;;;;;;8.57;7.70;;;17.90;99.90;;;;;;4974080;28;20485;-77
2021/06/28 01:43:05;;;;;;;15.67;7.07;;;17.80;99.90;;;;;;4973307;28;20462;-78
2021/06/28 01:45:32;;;;;;;8.90;6.37;;;17.80;99.90;;;;;;4976155;28;20789;-78
2021/06/28 01:48:00;;;;;;;9.27;7.17;;;17.80;99.90;;;;;;4960514;28;20517;-77
2021/06/28 01:50:30;;;;;;;9.40;6.90;;;17.80;99.90;;;;;;4977336;28;20533;-80
2021/06/28 01:52:57;;;;;;;13.40;8.47;;;17.80;99.90;;;;;;4986166;28;20480;-77
2021/06/28 01:55:26;;;;;;;7.63;6.63;;;17.80;99.90;;;;;;4973863;28;20443;-79
2021/06/28 01:57:55;;;;;;;8.67;6.63;;;17.90;99.90;;;;;;4973451;28;20498;-79
2021/06/28 02:00:36;;;;;;;6.70;5.50;;;17.90;99.90;;;;;;4987933;28;20430;-79
2021/06/28 02:03:10;;;;;;;9.73;6.50;;;17.90;99.90;;;;;;4974544;28;20549;-79
2021/06/28 02:05:55;;;;;;;9.83;7.80;;;17.80;99.90;;;;;;4941965;28;20445;-79
2021/06/28 02:08:26;;;;;;;10.33;6.57;;;17.80;99.90;;;;;;4968693;28;20469;-77
2021/06/28 02:11:04;;;;;;;7.27;5.63;;;17.80;99.90;;;;;;4977167;28;20438;-79
2021/06/28 02:13:34;;;;;;;7.53;6.27;;;17.70;99.90;;;;;;4977530;28;20958;-81
2021/06/28 02:16:01;;;;;;;6.93;6.23;;;17.80;99.90;;;;;;4993547;28;20536;-79
2021/06/28 02:18:28;;;;;;;7.10;6.40;;;17.70;99.90;;;;;;4994206;28;20476;-79
2021/06/28 02:20:57;;;;;;;7.00;6.30;;;17.60;99.90;;;;;;4992699;28;21021;-79
2021/06/28 02:23:37;;;;;;;10.70;6.77;;;17.80;99.90;;;;;;4965991;28;20443;-78
2021/06/28 02:26:09;;;;;;;8.57;6.33;;;17.70;99.90;;;;;;4956677;28;20431;-79
2021/06/28 02:28:38;;;;;;;7.90;7.10;;;17.70;99.90;;;;;;4956819;28;20446;-77
2021/06/28 02:31:08;;;;;;;8.93;7.80;;;17.60;99.90;;;;;;4982258;28;20450;-78
2021/06/28 02:33:37;;;;;;;10.57;8.10;;;17.60;99.90;;;;;;4960553;28;20509;-77
2021/06/28 02:36:04;;;;;;;11.60;6.77;;;17.50;99.90;;;;;;4996723;28;20429;-77
2021/06/28 02:38:31;;;;;;;6.77;6.07;;;17.50;99.90;;;;;;4997058;28;20481;-77
2021/06/28 02:40:59;;;;;;;7.90;6.63;;;17.50;99.90;;;;;;4980283;28;20450;-80
2021/06/28 02:43:26;;;;;;;6.90;6.20;;;17.50;99.90;;;;;;4998071;28;20445;-78
2021/06/28 02:45:53;;;;;;;11.73;6.50;;;17.50;99.90;;;;;;4997400;28;20460;-78
2021/06/28 02:48:20;;;;;;;8.77;7.80;;;17.40;99.90;;;;;;4963967;28;20466;-80
2021/06/28 02:50:48;;;;;;;8.40;5.80;;;17.40;99.90;;;;;;4980068;28;20482;-79
2021/06/28 02:53:18;;;;;;;12.83;7.17;;;17.40;99.90;;;;;;4995013;28;20517;-78
2021/06/28 02:55:47;;;;;;;10.43;6.93;;;17.40;99.90;;;;;;4980758;28;20430;-79
2021/06/28 02:58:15;;;;;;;6.67;6.00;;;17.40;99.90;;;;;;4997289;28;20474;-80
2021/06/28 03:00:42;;;;;;;8.23;6.20;;;17.30;99.90;;;;;;4993671;28;20477;-76
2021/06/28 03:03:13;;;;;;;7.60;6.90;;;17.30;99.90;;;;;;4988859;28;20458;-80
2021/06/28 03:05:40;;;;;;;8.03;6.60;;;17.30;99.90;;;;;;4994069;28;20444;-79
2021/06/28 03:08:07;;;;;;;24.20;8.33;;;17.30;99.90;;;;;;4976294;28;20566;-79
2021/06/28 03:10:36;;;;;;;6.47;5.77;;;17.40;99.90;;;;;;4978714;28;20419;-78
2021/06/28 03:13:05;;;;;;;11.30;6.03;;;17.40;99.90;;;;;;4976574;28;20542;-77
2021/06/28 03:15:32;;;;;;;10.47;6.87;;;17.30;99.90;;;;;;4978181;28;20450;-79
2021/06/28 03:18:00;;;;;;;8.20;7.00;;;17.30;99.90;;;;;;4979097;28;20531;-79
2021/06/28 03:20:27;;;;;;;8.73;6.60;;;17.30;99.90;;;;;;4964386;28;20434;-79
2021/06/28 03:22:54;;;;;;;10.07;6.77;;;17.30;99.90;;;;;;4979943;28;20481;-79
2021/06/28 03:25:20;;;;;;;8.10;6.27;;;17.20;99.90;;;;;;4996642;28;20783;-78
2021/06/28 03:27:47;;;;;;;11.57;6.53;;;17.30;99.90;;;;;;4980372;28;20468;-80
2021/06/28 03:30:15;;;;;;;7.90;6.70;;;17.30;99.90;;;;;;4997477;28;20929;-79
2021/06/28 03:32:44;;;;;;;8.37;5.77;;;17.20;99.90;;;;;;4975645;28;20570;-77
2021/06/28 03:35:12;;;;;;;7.00;6.30;;;17.20;99.90;;;;;;4992500;28;20425;-77
2021/06/28 03:37:40;;;;;;;7.20;5.93;;;17.20;99.90;;;;;;4976763;28;21010;-79
2021/06/28 03:40:09;;;;;;;5.70;5.20;;;17.10;99.90;;;;;;4977459;28;20522;-79
2021/06/28 03:42:37;;;;;;;7.90;5.97;;;17.10;99.90;;;;;;4990681;28;20453;-79
2021/06/28 03:45:06;;;;;;;7.60;6.43;;;17.10;99.90;;;;;;4997128;28;20509;-81
2021/06/28 03:47:33;;;;;;;10.17;7.33;;;17.10;99.90;;;;;;4963741;28;20499;-78
2021/06/28 03:50:00;;;;;;;5.73;5.17;;;17.10;99.90;;;;;;4975958;28;20431;-79
2021/06/28 03:52:27;;;;;;;7.70;5.03;;;17.10;99.90;;;;;;4975837;28;20839;-79
2021/06/28 03:54:54;;;;;;;7.40;6.30;;;17.00;99.90;;;;;;4977344;28;20427;-80
2021/06/28 03:57:21;;;;;;;7.87;6.20;;;17.00;99.90;;;;;;4990740;28;20479;-79
2021/06/28 03:59:48;;;;;;;9.20;6.87;;;17.00;99.90;;;;;;4975791;28;20438;-79
2021/06/28 04:02:15;;;;;;;10.63;7.37;;;17.10;99.90;;;;;;4978504;28;20469;-78
2021/06/28 04:04:48;;;;;;;9.73;6.50;;;17.10;99.90;;;;;;4996513;28;20473;-78
2021/06/28 04:07:18;;;;;;;9.47;6.43;;;17.10;99.90;;;;;;4977846;28;20481;-77
2021/06/28 04:09:45;;;;;;;12.33;6.50;;;17.10;99.90;;;;;;4978225;28;20461;-80
2021/06/28 04:12:12;;;;;;;7.30;5.90;;;17.10;99.90;;;;;;4977139;28;20478;-80
2021/06/28 04:14:41;;;;;;;9.20;6.40;;;17.10;99.90;;;;;;4977151;28;20962;-80
2021/06/28 04:17:09;;;;;;;8.40;7.20;;;17.20;99.90;;;;;;4974769;28;20481;-81
2021/06/28 04:19:36;;;;;;;6.90;6.27;;;17.20;99.90;;;;;;4962842;28;20473;-80
2021/06/28 04:22:04;;;;;;;11.63;6.33;;;17.10;99.90;;;;;;4975762;28;20462;-81
2021/06/28 04:24:31;;;;;;;13.03;6.57;;;17.10;99.90;;;;;;4957789;28;20447;-82
2021/06/28 04:26:58;;;;;;;7.50;6.50;;;17.20;99.90;;;;;;4941371;28;20466;-80
2021/06/28 04:29:25;;;;;;;9.90;6.37;;;17.20;99.90;;;;;;4942819;28;20505;-79
2021/06/28 04:31:53;;;;;;;13.33;6.87;;;17.30;99.90;;;;;;4957270;28;20496;-82
2021/06/28 04:34:20;;;;;;;10.37;6.47;;;17.30;99.90;;;;;;4976671;28;20434;-80
2021/06/28 04:36:47;;;;;;;10.70;6.63;;;17.40;99.90;;;;;;4976230;28;21030;-81
2021/06/28 04:39:14;;;;;;;16.63;6.33;;;17.30;99.90;;;;;;4959165;28;20839;-81
2021/06/28 04:41:41;;;;;;;11.57;6.03;;;17.40;99.90;;;;;;4968623;28;20534;-81
2021/06/28 04:44:08;;;;;;;9.87;7.80;;;17.30;99.90;;;;;;4957671;28;20525;-81
2021/06/28 04:46:35;;;;;;;10.10;6.40;;;17.30;99.90;;;;;;4956633;28;20474;-80
2021/06/28 04:49:02;;;;;;;7.20;6.10;;;17.30;99.90;;;;;;4989426;28;20423;-81
2021/06/28 04:51:29;;;;;;;10.50;7.50;;;17.30;99.90;;;;;;4989779;28;20465;-80
2021/06/28 04:53:56;;;;;;;9.63;6.20;;;17.40;99.90;;;;;;4991558;28;20489;-81
2021/06/28 04:56:23;;;;;;;9.73;7.73;;;17.40;99.90;;;;;;4955889;28;20467;-80
2021/06/28 04:58:50;;;;;;;11.33;7.50;;;17.50;99.90;;;;;;4966860;28;21013;-81
2021/06/28 05:01:17;;;;;;;12.90;8.60;;;17.60;99.90;;;;;;4974735;28;20478;-81
2021/06/28 05:03:44;;;;;;;14.67;8.70;;;17.70;99.90;;;;;;4970589;28;20478;-81
2021/06/28 05:06:10;;;;;;;9.30;8.20;;;17.80;99.90;;;;;;4956339;28;20462;-80
2021/06/28 05:08:37;;;;;;;14.90;10.00;;;17.90;99.90;;;;;;4942490;28;20471;-80
2021/06/28 05:11:04;;;;;;;13.43;9.50;;;18.00;99.90;;;;;;4975696;28;20442;-81
2021/06/28 05:13:31;;;;;;;18.53;8.90;;;18.00;99.90;;;;;;4976866;28;20483;-81
2021/06/28 05:15:58;;;;;;;9.97;8.80;;;18.10;99.90;;;;;;4979118;28;20459;-80
2021/06/28 05:18:25;;;;;;;9.67;8.57;;;18.10;99.90;;;;;;4956458;28;20470;-80
2021/06/28 05:20:52;;;;;;;14.27;9.07;;;18.10;99.90;;;;;;4956325;28;20443;-80
2021/06/28 05:23:20;;;;;;;11.07;7.87;;;18.20;99.90;;;;;;4963762;28;20506;-80
2021/06/28 05:25:47;;;;;;;10.63;8.70;;;18.30;99.90;;;;;;4972076;28;20450;-82
2021/06/28 05:28:15;;;;;;;12.53;8.93;;;18.30;99.90;;;;;;4957536;28;20436;-81
2021/06/28 05:30:42;;;;;;;9.40;8.43;;;18.40;99.90;;;;;;4946250;28;20539;-80
2021/06/28 05:33:09;;;;;;;9.97;8.97;;;18.40;99.90;;;;;;4968274;28;20490;-80
2021/06/28 05:35:36;;;;;;;10.93;8.60;;;18.50;99.90;;;;;;4975585;28;20450;-81
2021/06/28 05:38:04;;;;;;;11.67;9.30;;;18.50;99.90;;;;;;4974244;28;20484;-81
2021/06/28 05:40:31;;;;;;;9.93;8.93;;;18.50;99.90;;;;;;4960650;28;20476;-80
2021/06/28 05:42:58;;;;;;;14.07;9.63;;;18.50;99.90;;;;;;4991794;28;20460;-82
2021/06/28 05:45:25;;;;;;;11.40;9.03;;;18.60;99.90;;;;;;4975775;28;20748;-82
2021/06/28 05:47:51;;;;;;;10.43;9.43;;;18.60;99.90;;;;;;4990110;28;20482;-80
2021/06/28 05:50:19;;;;;;;10.90;9.80;;;18.70;99.90;;;;;;4992380;28;20544;-80
2021/06/28 05:52:46;;;;;;;11.97;10.03;;;18.70;99.90;;;;;;4983937;28;20509;-81
2021/06/28 05:55:14;;;;;;;11.30;10.20;;;18.80;99.90;;;;;;4961316;28;20509;-81
2021/06/28 05:57:41;;;;;;;10.57;9.53;;;18.90;99.90;;;;;;4980567;28;20465;-79
2021/06/28 06:00:10;;;;;;;12.60;10.67;;;18.90;99.90;;;;;;4957087;28;20448;-80
2021/06/28 06:02:41;;;;;;;10.90;9.73;;;19.00;99.90;;;;;;4946922;28;20472;-80
2021/06/28 06:05:09;;;;;;;10.77;9.67;;;19.10;99.90;;;;;;4992602;28;21001;-81
2021/06/28 06:07:37;;;;;;;11.17;8.93;;;19.30;99.90;;;;;;4986902;28;20482;-80
2021/06/28 06:10:14;;;;;;;10.67;9.53;;;19.30;99.90;;;;;;4973357;28;20533;-81
2021/06/28 06:12:41;;;;;;;15.50;9.50;;;19.40;99.90;;;;;;4955742;28;20978;-80
2021/06/28 06:15:13;;;;;;;13.93;9.33;;;19.40;99.90;;;;;;4977305;28;20441;-81
2021/06/28 06:17:40;;;;;;;9.57;8.63;;;19.70;99.90;;;;;;4978341;28;20486;-80
2021/06/28 06:20:08;;;;;;;12.77;9.60;;;20.10;99.90;;;;;;4991290;28;20448;-81
2021/06/28 06:22:35;;;;;;;11.63;8.60;;;20.20;99.90;;;;;;4970063;28;20491;-80
2021/06/28 06:25:04;;;;;;;10.97;8.73;;;20.20;99.90;;;;;;4971803;28;20447;-81
2021/06/28 06:27:31;;;;;;;11.80;9.00;;;20.20;99.90;;;;;;5002896;28;20473;-79
2021/06/28 06:29:58;;;;;;;15.70;9.57;;;20.10;99.90;;;;;;4995343;28;20426;-79
2021/06/28 06:32:25;;;;;;;9.53;8.53;;;20.10;99.90;;;;;;4992617;28;20825;-79
2021/06/28 06:34:52;;;;;;;10.37;9.20;;;20.30;99.90;;;;;;4995289;28;20779;-81
2021/06/28 06:37:19;;;;;;;15.30;10.33;;;20.40;99.90;;;;;;4979451;28;20617;-81
2021/06/28 06:39:46;;;;;;;9.93;8.97;;;20.50;99.90;;;;;;4989203;28;20823;-79
2021/06/28 06:42:16;;;;;;;10.37;9.33;;;20.40;99.90;;;;;;4957042;28;20564;-81
2021/06/28 06:44:43;;;;;;;9.87;8.97;;;20.50;99.90;;;;;;4989003;28;20529;-80
2021/06/28 06:47:10;;;;;;;10.43;9.63;;;20.60;99.90;;;;;;4990394;28;20485;-80
2021/06/28 06:49:37;;;;;;;12.77;9.80;;;20.70;99.90;;;;;;4976818;28;20469;-80
2021/06/28 06:52:04;;;;;;;10.37;9.47;;;20.90;99.90;;;;;;4987479;28;20482;-81
2021/06/28 06:54:31;;;;;;;10.00;9.07;;;21.00;99.90;;;;;;4975181;28;20445;-81
2021/06/28 06:56:58;;;;;;;14.03;9.30;;;21.10;99.90;;;;;;4959470;28;20538;-81
2021/06/28 06:59:25;;;;;;;14.50;9.33;;;21.20;99.90;;;;;;4988126;28;21005;-81
2021/06/28 07:01:52;;;;;;;10.67;9.70;;;21.30;99.90;;;;;;4966876;28;20489;-79
2021/06/28 07:04:19;;;;;;;12.13;10.07;;;21.60;99.90;;;;;;5005881;28;20549;-79
2021/06/28 07:06:45;;;;;;;10.47;9.30;;;21.70;99.90;;;;;;4991482;28;20506;-80
2021/06/28 07:09:17;;;;;;;10.37;9.30;;;21.70;99.90;;;;;;5012098;28;20446;-81
2021/06/28 07:11:43;;;;;;;15.83;10.20;;;21.70;99.90;;;;;;4994488;28;20464;-80
2021/06/28 07:14:11;;;;;;;10.10;9.07;;;21.80;99.90;;;;;;4994460;28;20466;-79
2021/06/28 07:16:38;;;;;;;9.87;8.97;;;22.00;99.90;;;;;;5004456;28;20828;-80
2021/06/28 07:19:05;;;;;;;10.90;9.03;;;22.00;99.90;;;;;;4999502;28;20470;-80
2021/06/28 07:21:36;;;;;;;10.67;9.00;;;22.20;99.90;;;;;;4991830;28;20468;-79
2021/06/28 07:24:04;;;;;;;9.43;8.53;;;22.50;99.90;;;;;;4978942;28;20448;-78
2021/06/28 07:26:31;;;;;;;9.90;8.90;;;22.60;99.90;;;;;;4974441;28;20494;-79
2021/06/28 07:28:58;;;;;;;10.33;9.30;;;22.60;99.90;;;;;;4990647;28;20481;-81
2021/06/28 07:31:26;;;;;;;9.37;8.37;;;22.60;99.90;;;;;;4994599;28;20473;-80
2021/06/28 07:33:53;;;;;;;9.87;8.20;;;22.70;99.90;;;;;;4997116;28;20532;-80
2021/06/28 07:36:20;;;;;;;8.73;7.60;;;22.70;99.90;;;;;;4977992;28;20449;-79
2021/06/28 07:38:47;;;;;;;9.17;8.47;;;22.70;99.90;;;;;;4992338;28;20477;-79
2021/06/28 07:41:14;;;;;;;9.13;8.33;;;22.60;99.90;;;;;;4977652;28;20464;-80
2021/06/28 07:43:41;;;;;;;11.57;8.57;;;22.60;99.90;;;;;;4970081;28;20439;-78
2021/06/28 07:46:08;;;;;;;9.53;8.53;;;22.60;99.90;;;;;;4975340;28;20472;-80
2021/06/28 07:48:35;;;;;;;12.53;9.57;;;22.60;99.90;;;;;;4990865;28;20462;-79
2021/06/28 07:51:02;;;;;;;10.37;9.13;;;22.60;99.90;;;;;;4974727;28;20446;-80
2021/06/28 07:53:29;;;;;;;10.03;9.03;;;22.60;99.90;;;;;;4987039;28;20457;-79
2021/06/28 07:55:56;;;;;;;9.73;8.93;;;22.50;99.90;;;;;;4993444;28;20449;-78
2021/06/28 07:58:23;;;;;;;9.80;8.80;;;22.60;99.90;;;;;;4995718;28;20472;-78
2021/06/28 08:00:50;;;;;;;9.43;8.53;;;22.60;99.90;;;;;;4977484;28;20455;-79
2021/06/28 08:03:17;;;;;;;9.60;8.80;;;22.60;99.90;;;;;;4960347;28;20537;-78
2021/06/28 08:05:44;;;;;;;10.10;9.20;;;22.70;99.90;;;;;;4977566;28;20447;-79
2021/06/28 08:08:11;;;;;;;11.63;9.00;;;23.00;99.90;;;;;;5003789;28;20473;-79
2021/06/28 08:10:38;;;;;;;18.37;8.87;;;23.20;99.90;;;;;;5013111;28;20427;-80
2021/06/28 08:13:05;;;;;;;12.57;8.90;;;23.40;99.90;;;;;;5015109;28;20463;-79
2021/06/28 08:15:33;;;;;;;10.77;9.00;;;23.60;99.90;;;;;;4992948;28;20962;-80
2021/06/28 08:17:59;;;;;;;13.10;8.93;;;23.50;99.90;;;;;;5008402;28;20476;-79
2021/06/28 08:20:26;;;;;;;10.37;7.93;;;23.30;99.90;;;;;;5010118;28;20522;-79
2021/06/28 08:22:53;;;;;;;10.23;8.70;;;23.40;99.90;;;;;;5009203;28;20566;-79
2021/06/28 08:25:24;;;;;;;10.20;9.20;;;23.40;99.90;;;;;;4993950;28;20438;-80
2021/06/28 08:27:51;;;;;;;10.53;9.40;;;23.20;99.90;;;;;;4993770;28;20473;-80
2021/06/28 08:30:18;;;;;;;9.13;8.33;;;23.10;99.90;;;;;;4993392;28;20485;-81
2021/06/28 08:32:45;;;;;;;9.93;9.00;;;22.90;99.90;;;;;;5008888;28;20502;-81
2021/06/28 08:35:13;;;;;;;10.20;9.20;;;22.80;99.90;;;;;;4977136;28;20422;-79
2021/06/28 08:37:40;;;;;;;11.43;10.23;;;22.80;99.90;;;;;;4992107;28;20557;-79
2021/06/28 08:40:09;;;;;;;10.37;9.50;;;22.80;99.90;;;;;;4994161;28;20460;-80
2021/06/28 08:42:38;;;;;;;10.60;9.70;;;22.90;99.90;;;;;;4976867;28;20462;-80
2021/06/28 08:45:05;;;;;;;10.93;9.90;;;22.90;99.90;;;;;;4995152;28;20775;-80
2021/06/28 08:47:33;;;;;;;12.63;11.27;;;22.90;99.90;;;;;;4966526;28;20480;-80
2021/06/28 08:50:02;;;;;;;11.77;10.50;;;22.90;99.90;;;;;;4983673;28;20507;-81
2021/06/28 08:52:34;;;;;;;12.20;10.87;;;22.90;99.90;;;;;;4995117;28;20470;-79
2021/06/28 08:55:02;;;;;;;10.60;9.47;;;22.90;99.90;;;;;;4995641;28;20469;-80
2021/06/28 08:57:30;;;;;;;10.60;9.70;;;23.00;99.90;;;;;;4996780;28;20467;-79
2021/06/28 08:59:56;;;;;;;11.40;10.20;;;23.00;99.90;;;;;;4995291;28;20973;-80
2021/06/28 09:02:23;;;;;;;12.30;11.20;;;22.90;99.90;;;;;;4991556;28;20475;-80
2021/06/28 09:05:03;;;;;;;11.40;10.20;;;22.90;99.90;;;;;;4993414;28;20434;-81
2021/06/28 09:07:30;;;;;;;11.93;10.93;;;22.80;99.90;;;;;;4970265;28;20792;-81
2021/06/28 09:09:57;;;;;;;14.40;12.07;;;22.70;99.90;;;;;;4974573;28;20962;-79
2021/06/28 09:12:24;;;;;;;13.20;10.83;;;22.70;99.90;;;;;;4974149;28;20995;-80
2021/06/28 09:14:58;;;;;;;14.40;11.10;;;22.60;99.90;;;;;;4974847;28;20419;-80
2021/06/28 09:17:28;;;;;;;12.90;11.60;;;22.50;99.90;;;;;;5007336;28;20556;-79
2021/06/28 09:20:17;;;;;;;11.40;10.40;;;22.50;99.90;;;;;;4993486;28;20507;-80
2021/06/28 09:22:45;;;;;;;12.17;11.10;;;22.40;99.90;;;;;;4991843;28;20474;-80
2021/06/28 09:25:33;;;;;;;15.20;10.83;;;22.40;99.90;;;;;;4992147;28;20439;-80
2021/06/28 09:28:01;;;;;;;12.57;11.27;;;22.40;99.90;;;;;;5004475;28;20458;-79
2021/06/28 09:30:28;;;;;;;11.40;10.20;;;22.40;99.90;;;;;;5013322;28;20514;-80
2021/06/28 09:33:01;;;;;;;11.53;10.27;;;22.40;99.90;;;;;;5012440;28;20548;-79
2021/06/28 09:35:39;;;;;;;12.53;10.80;;;22.40;99.90;;;;;;4990963;28;20451;-79
2021/06/28 09:38:32;;;;;;;13.90;11.63;;;22.40;99.90;;;;;;4980564;28;20481;-80
2021/06/28 09:41:19;;;;;;;11.00;9.87;;;22.30;99.90;;;;;;5008399;28;20565;-79
2021/06/28 09:43:46;;;;;;;11.03;10.03;;;22.40;99.90;;;;;;4995496;28;20543;-79
2021/06/28 09:46:22;;;;;;;11.60;10.50;;;22.30;99.90;;;;;;4982891;28;20446;-80
2021/06/28 09:48:51;;;;;;;10.70;9.70;;;22.40;99.90;;;;;;4959929;28;21022;-80
2021/06/28 09:51:34;;;;;;;10.93;9.93;;;22.30;99.90;;;;;;4979023;28;20996;-81
2021/06/28 09:54:14;;;;;;;11.17;10.03;;;22.20;99.90;;;;;;4978951;28;20455;-82
2021/06/28 09:56:47;;;;;;;13.07;11.67;;;22.20;99.90;;;;;;4980917;28;20990;-81
2021/06/28 09:59:30;;;;;;;12.17;10.20;;;22.20;99.90;;;;;;4983448;28;20971;-82
2021/06/28 10:02:19;;;;;;;12.97;11.90;;;22.30;99.90;;;;;;4991965;28;20471;-82
2021/06/28 10:04:53;;;;;;;13.80;12.27;;;22.30;99.90;;;;;;4991850;28;20448;-80
2021/06/28 10:07:33;;;;;;;13.60;12.30;;;22.40;99.90;;;;;;4977201;28;20490;-81
2021/06/28 10:10:28;;;;;;;15.03;13.60;;;22.50;99.90;;;;;;4993836;28;20920;-81
2021/06/28 10:13:04;;;;;;;12.93;11.70;;;22.60;99.90;;;;;;4992710;28;20487;-80
2021/06/28 10:15:34;;;;;;;11.40;10.40;;;22.70;99.90;;;;;;4977772;28;20447;-80
2021/06/28 10:18:02;;;;;;;10.23;9.43;;;22.80;99.90;;;;;;4990087;28;20470;-80
2021/06/28 10:20:32;;;;;;;9.23;8.20;;;22.90;99.90;;;;;;4989341;28;20493;-80
2021/06/28 10:23:01;;;;;;;9.70;8.70;;;23.00;99.90;;;;;;4969034;28;20471;-80
2021/06/28 10:25:29;;;;;;;9.40;8.27;;;23.10;99.90;;;;;;4960144;28;20470;-80
2021/06/28 10:27:57;;;;;;;9.23;8.33;;;23.20;99.90;;;;;;4994474;28;20477;-80
2021/06/28 10:30:25;;;;;;;7.87;7.23;;;23.30;99.90;;;;;;5004263;28;20448;-80
2021/06/28 10:33:04;;;;;;;7.80;7.10;;;23.30;99.90;;;;;;4995431;28;20527;-80
2021/06/28 10:35:35;;;;;;;8.60;7.80;;;23.40;99.90;;;;;;4981908;28;20449;-81
2021/06/28 10:38:06;;;;;;;8.80;7.10;;;23.50;99.90;;;;;;4990966;28;20795;-80
2021/06/28 10:40:44;;;;;;;6.87;6.27;;;23.50;99.90;;;;;;5011421;28;20464;-80
2021/06/28 10:43:28;;;;;;;7.50;6.87;;;23.60;99.90;;;;;;4990856;28;20973;-80
2021/06/28 10:45:56;;;;;;;9.13;7.00;;;23.80;99.90;;;;;;4985418;28;20463;-80
2021/06/28 10:48:26;;;;;;;8.37;6.87;;;23.90;99.90;;;;;;4968964;28;20466;-81
2021/06/28 10:50:57;;;;;;;7.40;6.70;;;24.10;99.90;;;;;;5009100;28;20524;-80
2021/06/28 10:53:34;;;;;;;8.10;7.27;;;24.50;99.90;;;;;;4967646;28;20453;-80
2021/06/28 10:56:34;;;;;;;6.77;6.17;;;24.80;99.90;;;;;;4977779;28;20441;-82
2021/06/28 10:59:13;;;;;;;7.60;6.90;;;25.00;99.90;;;;;;5013021;28;20468;-82
2021/06/28 11:01:43;;;;;;;7.60;6.87;;;25.00;99.90;;;;;;4982856;28;20487;-80
2021/06/28 11:04:26;;;;;;;8.77;7.87;;;25.20;99.90;;;;;;5000099;28;20443;-82
2021/06/28 11:06:59;;;;;;;8.50;7.70;;;25.40;99.90;;;;;;4989640;28;20546;-80
2021/06/28 11:09:36;;;;;;;8.77;7.97;;;25.40;99.90;;;;;;4978063;28;20454;-81
2021/06/28 11:12:06;;;;;;;8.87;8.17;;;25.40;99.90;;;;;;4978490;28;20876;-80
2021/06/28 11:14:43;;;;;;;8.43;7.73;;;25.40;99.90;;;;;;4963479;28;20469;-80
2021/06/28 11:17:14;;;;;;;8.77;8.07;;;25.40;99.90;;;;;;4977785;28;21014;-81
2021/06/28 11:19:46;;;;;;;8.17;7.50;;;25.50;99.90;;;;;;4979140;28;20473;-82
2021/06/28 11:22:30;;;;;;;7.40;6.70;;;25.40;99.90;;;;;;4961635;28;20493;-81
2021/06/28 11:25:05;;;;;;;8.80;8.00;;;25.70;99.90;;;;;;4993558;28;20464;-80
2021/06/28 11:27:33;;;;;;;5.60;5.20;;;25.70;99.90;;;;;;4974662;28;20470;-81
2021/06/28 11:30:00;;;;;;;6.27;5.73;;;26.00;99.90;;;;;;4975301;28;20435;-80
2021/06/28 11:32:30;;;;;;;6.50;5.80;;;26.10;99.90;;;;;;4990995;28;20498;-80
2021/06/28 11:34:59;;;;;;;6.40;5.90;;;26.30;99.90;;;;;;4976793;28;20508;-79
2021/06/28 11:37:31;;;;;;;7.30;6.60;;;26.30;99.90;;;;;;4962539;28;20770;-80
2021/06/28 11:40:02;;;;;;;7.53;6.93;;;26.30;99.90;;;;;;4970596;28;20465;-81
2021/06/28 11:42:31;;;;;;;6.67;6.17;;;26.30;99.90;;;;;;4995694;28;20567;-80
2021/06/28 11:45:05;;;;;;;7.43;6.73;;;26.30;99.90;;;;;;4996503;28;20444;-80
2021/06/28 11:47:45;;;;;;;6.77;6.17;;;26.30;99.90;;;;;;4961516;28;20473;-81
2021/06/28 11:50:24;;;;;;;6.97;6.47;;;26.30;99.90;;;;;;4963004;28;20534;-80
2021/06/28 11:52:56;;;;;;;6.83;6.33;;;26.20;99.90;;;;;;4966768;28;20552;-80
2021/06/28 11:55:23;;;;;;;7.03;6.33;;;26.20;99.90;;;;;;5000951;28;20466;-80
2021/06/28 11:57:55;;;;;;;6.23;5.43;;;26.00;99.90;;;;;;4994858;28;20472;-80
2021/06/28 12:00:41;;;;;;;5.73;5.00;;;26.20;99.90;;;;;;4995259;28;20835;-81
2021/06/28 12:03:26;;;;;;;5.60;5.10;;;26.30;99.90;;;;;;4960697;28;20570;-79
2021/06/28 12:05:53;;;;;;;5.13;4.73;;;26.50;99.90;;;;;;4959185;28;20562;-82
2021/06/28 12:08:25;;;;;;;5.73;5.33;;;26.70;99.90;;;;;;4951791;28;20466;-80
2021/06/28 12:11:00;;;;;;;5.20;4.70;;;26.70;99.90;;;;;;4959398;28;20425;-79
2021/06/28 12:13:45;;;;;;;5.67;5.17;;;26.50;96.50;;;;;;4963076;28;20460;-80
2021/06/28 12:16:12;;;;;;;5.40;4.90;;;26.40;96.00;;;;;;4994464;28;20460;-79
2021/06/28 12:18:39;;;;;;;4.80;4.30;;;26.20;94.80;;;;;;4962337;28;20493;-80
2021/06/28 12:21:06;;;;;;;5.90;5.33;;;26.10;94.00;;;;;;4995313;28;20460;-80
2021/06/28 12:23:33;;;;;;;5.70;5.10;;;26.20;93.60;;;;;;4978388;28;20815;-79
2021/06/28 12:26:14;;;;;;;5.67;4.97;;;26.20;93.40;;;;;;4979886;28;20452;-81
2021/06/28 12:28:41;;;;;;;4.60;4.10;;;26.30;91.30;;;;;;4979044;28;20881;-79
2021/06/28 12:31:16;;;;;;;4.90;4.50;;;26.20;92.80;;;;;;4977136;28;20529;-79
2021/06/28 12:33:43;;;;;;;4.87;4.47;;;26.30;91.10;;;;;;4980420;28;20481;-80
2021/06/28 12:36:19;;;;;;;4.67;4.30;;;26.40;90.30;;;;;;4983572;28;20584;-80
2021/06/28 12:38:57;;;;;;;4.57;4.27;;;26.30;90.00;;;;;;4998282;28;20475;-79
2021/06/28 12:41:24;;;;;;;4.00;3.70;;;26.20;90.40;;;;;;5015863;28;21043;-80
2021/06/28 12:43:52;;;;;;;5.37;4.90;;;26.00;90.50;;;;;;5030671;28;20462;-79
2021/06/28 12:46:20;;;;;;;6.00;4.10;;;25.90;91.10;;;;;;5005687;28;20475;-80
2021/06/28 12:48:48;;;;;;;4.50;4.10;;;25.90;91.50;;;;;;4999344;28;20452;-79
2021/06/28 12:51:20;;;;;;;4.23;3.93;;;25.90;90.50;;;;;;5014129;28;20479;-80
2021/06/28 12:53:48;;;;;;;4.63;4.23;;;25.90;91.80;;;;;;5012095;28;20482;-79